Aeroporto :
LOGIN :

Iscrizione | Disclaimer

   EN    FR    IT 

 










Sommario :    VFR   VFR Marginale   IFR   IFR Intensivo   IFR Molto Intensivo
Visibilità : 
Base nubi : 
>= 8 km
>= 3000ft
5 / 8 km
1000 / 3000 ft
1500m / 5 km
500 / 1000 ft
800 / 1500m
200 / 500 ft
< 800m
< 200 ft
Simboli :   Temporali  Nebbia  Neve Forte  Precipitazioni Forti  Vento > 20 kt
SIGMETs :   Varie  Temporali  Ghiacco  Turbolenza  Onda orograficha  Ceneri Vulcaniche






- Altitudine del aeroporto : 1496 ft
- Codice IATA : SBZ


LRSB - Sibiu

ULTIMO METAR :
  • 240830Z 35004KT 310V030 9999 SCT056 15/09 Q1003

METARs OBSOLETI :
  • 240800Z VRB02KT 9999 SCT056 14/08 Q1003
  • 240730Z 02004KT 330V060 9999 SCT055 13/08 Q1003
  • 240700Z 35004KT 280V050 9999 FEW055 12/08 Q1003
  • 240630Z VRB02KT CAVOK 12/08 Q1003
  • 240600Z VRB01KT CAVOK 11/08 Q1003
  • 240530Z 25004KT 220V300 9999 FEW005 10/08 Q1003
  • 240500Z 24004KT 9999 SCT004 08/07 Q1003
  • 240430Z 27004KT 9999 BKN004 08/07 Q1003
  • 240400Z 35003KT 320V020 9999 3000SW BCFG SCT005 07/07 Q1003 NOSIG

TAF TAF LRSB
Valido dal 24 a 06 ore il 25 a 06 ore UTC


240500Z 2406/2506 VRB04KT CAVOK
TEMPO 2411/2416 32010KT SCT040CB
PROB30
TEMPO 2412/2415 5000 -TSRA



MetMap, La meteo Aeronautica in un colpo d'occhio ! - Copyright ORBIFLY Dicembre 2007 - Disclaimer

ORBIFLY MET'MAP TEAM :

Programmazione e sviluppo : Alexandra Zaïnal
Concezione : Baudouin d'Aumeries
Supporto tecnico e logistico : Manuel Goepfert
Aiuto : Marc-Olivier Méhu
Aiuto per la traduzione : Arnaldo La Scala




FONTI E CREDITI :

   NOAA